Airfield :
LOGIN :

Register | Disclaimer

   EN    FR    IT 

 










Legend :    VFR   Marginal VFR   IFR   Intensive IFR   Very Intensive IFR
Visi :
Ceiling :
>= 8 km
>= 3000ft
5 to 8 km
1000 to 3000 ft
1500m to 5 km
500 to 1000 ft
800 to 1500m
200 to 500 ft
< 800m
< 200 ft
Symbols :   Thunderstorms  Fog  Heavy snow  Heavy precipitations  Wind > 20 kt
SIGMETs :     Misc.  Thunderstorms  Icing  Turbulence  Mountain Waves  Volcanic Ashes






- Airport Elevation : 505 ft
- IATA code : SXB


LFST - Strasbourg

CURRENT METAR :
  • 100400Z AUTO 30008KT CAVOK 04/01 Q1026 NOSIG

EXPIRED METARs :
  • 100330Z AUTO 29006KT CAVOK 03/00 Q1025 NOSIG
  • 100300Z AUTO 28005KT CAVOK 03/00 Q1025 BECMG 31015KT
  • 100230Z AUTO 27004KT CAVOK 04/01 Q1024 BECMG 31015KT
  • 100200Z AUTO 28007KT CAVOK 04/01 Q1024 NOSIG
  • 100130Z AUTO 30008KT 9999 SCT048 05/01 Q1024 NOSIG

TAF TAF LFST
Valid from the 10 at 00:00 until the 11 at 00:00 UTC


092300Z 1000/1024 31015KT 9999 SCT045
BECMG 1005/1007 VRB03KT
BECMG 1008/1011 18010KT



MET'MAP, your aeronautical weather chart ! - Copyright ORBIFLY December 2007 - Disclaimer

ORBIFLY MET'MAP TEAM :

Programming & Development : Alexandra Zaïnal
Concept & original design : Baudouin d'Aumeries
Assistance for programming : Marc-Olivier Méhu
Technical & hardware support : Manuel Goepfert

Contact : metmap@orbifly.com




SOURCES & CREDITS :

   NOAA